createdAt,value
2019-06-10T00:01:21.558Z,8.00
2019-06-10T00:06:25.923Z,12.05
2019-06-10T00:11:31.511Z,9.63
2019-06-10T00:16:35.993Z,11.53
2019-06-10T00:21:41.370Z,12.43
2019-06-10T00:26:45.672Z,11.70
2019-06-10T00:31:50.830Z,12.98
2019-06-10T00:36:55.663Z,19.77
2019-06-10T00:42:02.503Z,11.00
2019-06-10T00:47:07.920Z,11.08
2019-06-10T00:52:14.016Z,13.60
2019-06-10T00:57:20.747Z,11.78
2019-06-10T01:02:24.404Z,10.60
2019-06-10T01:07:30.981Z,18.02
2019-06-10T01:12:34.930Z,11.08
2019-06-10T01:17:41.637Z,10.28
2019-06-10T01:22:45.596Z,10.93
2019-06-10T01:27:51.564Z,12.78
2019-06-10T01:32:56.105Z,12.75
2019-06-10T01:38:01.095Z,15.58
2019-06-10T01:43:06.305Z,15.68
2019-06-10T01:48:12.188Z,13.45
2019-06-10T01:53:17.603Z,12.75
2019-06-10T01:58:23.650Z,13.68
2019-06-10T02:03:31.185Z,13.13
2019-06-10T02:08:34.427Z,17.32
2019-06-10T02:13:40.819Z,14.18
2019-06-10T02:18:57.650Z,12.18
2019-06-10T02:23:52.043Z,14.95
2019-06-10T02:28:56.510Z,16.35
2019-06-10T02:34:02.599Z,14.35
2019-06-10T02:39:09.090Z,9.73
2019-06-10T02:44:17.213Z,11.10
2019-06-10T02:49:35.587Z,14.50
2019-06-10T02:54:31.286Z,12.07
2019-06-10T02:59:36.132Z,10.38
2019-06-10T03:04:38.003Z,9.35
2019-06-10T03:09:42.953Z,10.00
2019-06-10T03:14:47.422Z,13.55
2019-06-10T03:19:53.610Z,11.12
2019-06-10T03:24:57.950Z,8.90
2019-06-10T03:30:09.000Z,9.53
2019-06-10T03:35:09.123Z,9.03
2019-06-10T03:40:13.636Z,12.70
2019-06-10T03:45:19.141Z,10.10
2019-06-10T03:50:25.880Z,14.78
2019-06-10T03:55:29.975Z,6.37
2019-06-10T04:00:36.916Z,14.50
2019-06-10T04:05:42.368Z,9.03
2019-06-10T04:10:46.586Z,9.35
2019-06-10T04:15:53.318Z,13.93
2019-06-10T04:21:05.139Z,9.43
2019-06-10T04:26:09.454Z,11.22
2019-06-10T04:31:13.832Z,12.50
2019-06-10T04:36:18.394Z,14.38
2019-06-10T04:41:24.630Z,12.10
2019-06-10T04:46:34.605Z,10.78
2019-06-10T04:51:39.007Z,10.35
2019-06-10T04:56:43.403Z,14.35
2019-06-10T05:01:47.714Z,6.65
2019-06-10T05:06:52.716Z,10.65
2019-06-10T05:11:57.142Z,12.07
2019-06-10T05:41:21.801Z,11.65
2019-06-10T05:57:05.468Z,10.95
2019-06-10T08:17:54.460Z,13.72
2019-06-10T08:19:46.222Z,10.03
2019-06-10T08:46:27.792Z,12.68
2019-06-10T08:52:02.769Z,8.63
2019-06-10T08:56:50.330Z,9.25
2019-06-10T09:01:56.933Z,6.37
2019-06-10T09:07:04.225Z,9.98
2019-06-10T09:12:32.921Z,6.35
2019-06-10T09:23:18.372Z,9.25
2019-06-10T09:28:10.039Z,10.00
2019-06-10T09:33:23.245Z,10.38
2019-06-10T09:38:34.656Z,11.90
2019-06-10T09:43:59.950Z,10.72
2019-06-10T09:49:02.127Z,7.72
2019-06-10T09:54:12.742Z,9.88
2019-06-10T10:00:15.952Z,10.53
2019-06-10T10:04:49.452Z,8.53
2019-06-10T10:15:39.563Z,15.68
2019-06-10T10:42:23.622Z,10.75
2019-06-10T10:47:27.650Z,9.80
2019-06-10T10:52:33.187Z,11.65
2019-06-10T10:57:37.656Z,10.58
2019-06-10T11:02:43.132Z,12.45
2019-06-10T11:07:48.196Z,9.78
2019-06-10T11:12:54.148Z,9.33
2019-06-10T11:17:58.897Z,8.60
2019-06-10T11:23:03.285Z,10.15
2019-06-10T11:28:07.944Z,16.35
2019-06-10T11:33:12.347Z,14.45
2019-06-10T11:38:16.764Z,13.40
2019-06-10T11:43:22.630Z,10.60
2019-06-10T11:48:27.143Z,11.25
2019-06-10T11:53:34.394Z,23.35
2019-06-10T11:58:39.013Z,12.53
2019-06-10T12:03:43.475Z,15.25
2019-06-10T12:08:48.903Z,10.40
2019-06-10T12:13:59.931Z,13.35
2019-06-10T12:19:00.717Z,13.35
2019-06-10T12:24:05.691Z,10.40
2019-06-10T12:29:12.334Z,17.00
2019-06-10T12:34:19.477Z,16.93
2019-06-10T12:39:23.739Z,9.43
2019-06-10T12:44:28.134Z,7.15
2019-06-10T12:49:32.710Z,8.50
2019-06-10T12:54:37.265Z,11.80
2019-06-10T12:59:43.028Z,12.75
2019-06-10T13:04:48.916Z,11.45
2019-06-10T13:09:57.617Z,16.40
2019-06-10T13:15:05.434Z,20.25
2019-06-10T13:20:10.412Z,17.37
2019-06-10T13:25:15.499Z,7.67
2019-06-10T13:30:22.065Z,10.10
2019-06-10T13:40:31.990Z,10.25
2019-06-10T13:45:36.262Z,13.58
2019-06-10T13:50:42.328Z,9.65
2019-06-10T13:55:46.869Z,13.32
2019-06-10T14:00:53.597Z,9.13
2019-06-10T14:05:59.753Z,45.38
2019-06-10T14:11:07.298Z,35.17
2019-06-10T14:16:12.736Z,66.25
2019-06-10T14:21:18.346Z,12.05
2019-06-10T14:26:36.605Z,14.98
2019-06-10T14:31:42.856Z,10.60
2019-06-10T14:36:34.320Z,38.17
2019-06-10T14:41:38.649Z,12.05
2019-06-10T14:46:43.019Z,8.48
2019-06-10T14:51:47.634Z,10.25
2019-06-10T14:56:57.231Z,8.50
2019-06-10T15:02:02.622Z,9.83
2019-06-10T15:07:07.221Z,15.60
2019-06-10T15:12:15.580Z,14.18
2019-06-10T15:17:18.934Z,16.85
2019-06-10T15:22:24.244Z,16.95
2019-06-10T15:27:32.564Z,20.27
2019-06-10T15:32:35.105Z,25.07
2019-06-10T15:37:39.437Z,21.48
2019-06-10T15:42:43.836Z,24.25
2019-06-10T15:47:48.227Z,30.70
2019-06-10T15:52:54.187Z,26.10
2019-06-10T15:57:58.499Z,27.50
2019-06-10T16:03:02.810Z,28.70
2019-06-10T16:08:07.394Z,30.43
2019-06-10T16:13:12.509Z,27.05
2019-06-10T16:18:18.482Z,24.52
2019-06-10T16:23:26.705Z,26.80
2019-06-10T16:28:32.671Z,28.47
2019-06-10T16:33:36.602Z,24.80
2019-06-10T16:38:42.331Z,23.67
2019-06-10T16:43:46.984Z,21.50
2019-06-10T16:48:52.744Z,22.35
2019-06-10T16:53:57.272Z,25.68
2019-06-10T16:59:02.989Z,28.65
2019-06-10T17:04:07.543Z,27.00
2019-06-10T17:09:13.450Z,31.07
2019-06-10T17:14:18.074Z,26.48
2019-06-10T17:19:26.443Z,29.05
2019-06-10T17:24:29.517Z,27.00
2019-06-10T17:29:34.776Z,25.23
2019-06-10T17:34:39.096Z,23.65
2019-06-10T17:39:43.415Z,24.67
2019-06-10T17:44:47.740Z,31.20
2019-06-10T17:49:52.051Z,24.85
2019-06-10T17:55:23.327Z,29.95
2019-06-10T18:00:27.857Z,25.15
2019-06-10T18:05:33.563Z,25.67
2019-06-10T18:10:37.920Z,37.42
2019-06-10T18:15:42.430Z,38.65
2019-06-10T18:20:46.764Z,46.37
2019-06-10T18:25:52.704Z,43.83
2019-06-10T18:30:57.255Z,48.05
2019-06-10T18:36:01.622Z,34.98
2019-06-10T18:41:06.071Z,33.35
2019-06-10T18:46:12.774Z,17.42
2019-06-10T18:51:16.602Z,14.68
2019-06-10T18:56:23.070Z,17.32
2019-06-10T19:01:28.197Z,9.48
2019-06-10T19:06:33.845Z,10.72
2019-06-10T19:11:40.189Z,22.40
2019-06-10T19:16:44.564Z,23.92
2019-06-10T19:22:01.824Z,14.68
2019-06-10T19:26:58.269Z,42.98
2019-06-10T19:32:03.659Z,23.98
2019-06-10T19:37:07.267Z,28.67
2019-06-10T19:42:13.049Z,30.85
2019-06-10T19:47:17.405Z,31.20
2019-06-10T19:52:23.462Z,24.37
2019-06-10T19:57:27.889Z,36.58
2019-06-10T20:02:33.001Z,22.25
2019-06-10T20:07:42.030Z,40.03
2019-06-10T20:12:46.670Z,19.55
2019-06-10T20:17:52.563Z,55.48
2019-06-10T20:22:57.623Z,62.67
2019-06-10T20:28:02.842Z,77.90
2019-06-10T20:33:07.476Z,55.83
2019-06-10T20:38:13.085Z,76.62
2019-06-10T20:43:17.638Z,64.27
2019-06-10T20:48:24.510Z,50.33
2019-06-10T20:53:28.692Z,84.27
2019-06-10T20:58:33.293Z,58.70
2019-06-10T21:03:38.974Z,85.05
2019-06-10T21:08:47.697Z,68.17
2019-06-10T21:13:52.092Z,75.03
2019-06-10T21:18:56.254Z,54.15
2019-06-10T22:09:13.708Z,78.85
2019-06-10T22:12:44.156Z,62.95
2019-06-10T22:17:50.401Z,69.85
2019-06-10T22:22:56.393Z,61.55
2019-06-10T22:28:02.683Z,61.68
2019-06-10T22:33:06.919Z,53.58
2019-06-10T22:38:13.035Z,65.78
2019-06-10T22:43:17.436Z,68.87
2019-06-10T22:48:22.455Z,57.25
2019-06-10T22:53:27.051Z,65.37
2019-06-10T22:58:31.367Z,77.40
2019-06-10T23:03:35.679Z,71.28
2019-06-10T23:08:40.093Z,82.27
2019-06-10T23:13:44.425Z,81.47
2019-06-10T23:18:48.895Z,90.65
2019-06-10T23:23:55.410Z,80.75
2019-06-10T23:29:00.222Z,80.80
2019-06-10T23:34:04.826Z,105.45
2019-06-10T23:39:09.446Z,75.40
2019-06-10T23:44:13.830Z,80.38
2019-06-10T23:49:18.239Z,85.77
2019-06-10T23:54:22.953Z,79.87
2019-06-10T23:59:27.403Z,90.95
